createdAt,value
2023-04-26T00:00:57.102Z,1.73
2023-04-26T00:06:04.058Z,1.50
2023-04-26T00:11:12.833Z,1.45
2023-04-26T00:16:18.689Z,1.40
2023-04-26T00:21:24.252Z,1.48
2023-04-26T00:26:34.485Z,2.03
2023-04-26T00:31:39.942Z,1.85
2023-04-26T00:36:46.264Z,1.80
2023-04-26T00:41:54.349Z,1.70
2023-04-26T00:47:00.166Z,1.40
2023-04-26T00:52:06.094Z,1.70
2023-04-26T00:57:15.179Z,2.30
2023-04-26T01:02:21.223Z,1.70
2023-04-26T01:07:27.277Z,2.20
2023-04-26T01:12:35.680Z,2.20
2023-04-26T01:17:44.746Z,1.87
2023-04-26T01:22:56.129Z,2.15
2023-04-26T01:28:02.072Z,1.95
2023-04-26T01:33:07.621Z,2.10
2023-04-26T01:38:18.037Z,2.53
2023-04-26T01:43:23.791Z,2.07
2023-04-26T01:48:29.479Z,2.53
2023-04-26T01:53:37.443Z,2.13
2023-04-26T01:58:43.285Z,2.70
2023-04-26T02:03:49.514Z,2.05
2023-04-26T02:09:00.600Z,1.90
2023-04-26T02:14:06.053Z,2.97
2023-04-26T02:19:11.844Z,2.03
2023-04-26T02:24:23.469Z,2.63
2023-04-26T02:29:42.969Z,2.20
2023-04-26T02:34:49.832Z,2.23
2023-04-26T02:39:58.051Z,2.30
2023-04-26T02:45:03.530Z,2.70
2023-04-26T02:50:10.569Z,2.03
2023-04-26T02:55:19.267Z,2.45
2023-04-26T03:00:25.360Z,2.40
2023-04-26T03:05:33.291Z,2.88
2023-04-26T03:10:41.456Z,2.17
2023-04-26T03:15:50.074Z,2.23
2023-04-26T03:20:55.552Z,2.13
2023-04-26T03:26:03.823Z,2.30
2023-04-26T03:31:09.470Z,2.45
2023-04-26T03:36:14.864Z,2.65
2023-04-26T03:41:23.291Z,3.07
2023-04-26T03:46:29.205Z,3.15
2023-04-26T03:51:35.078Z,3.40
2023-04-26T03:56:43.257Z,2.60
2023-04-26T04:01:48.830Z,2.95
2023-04-26T04:06:54.338Z,3.10
2023-04-26T04:12:03.194Z,3.10
2023-04-26T04:17:08.976Z,3.40
2023-04-26T04:22:14.667Z,3.78
2023-04-26T04:27:24.012Z,3.58
2023-04-26T04:32:29.724Z,3.80
2023-04-26T04:37:35.925Z,3.45
2023-04-26T04:42:44.764Z,3.63
2023-04-26T04:47:51.073Z,3.97
2023-04-26T04:52:56.512Z,3.28
2023-04-26T04:58:04.811Z,3.10
2023-04-26T05:03:11.662Z,3.90
2023-04-26T05:08:17.328Z,3.70
2023-04-26T05:13:25.696Z,3.83
2023-04-26T05:18:32.032Z,4.00
2023-04-26T05:23:37.957Z,3.77
2023-04-26T05:28:46.880Z,3.95
2023-04-26T05:34:16.250Z,3.83
2023-04-26T05:39:26.070Z,3.78
2023-04-26T05:44:34.346Z,4.32
2023-04-26T05:49:40.822Z,4.00
2023-04-26T05:54:46.178Z,4.03
2023-04-26T05:59:54.973Z,4.27
2023-04-26T06:05:01.494Z,4.40
2023-04-26T06:10:08.155Z,4.20
2023-04-26T06:15:16.537Z,4.27
2023-04-26T06:20:23.106Z,4.43
2023-04-26T06:25:28.532Z,5.00
2023-04-26T06:30:38.304Z,5.77
2023-04-26T06:35:44.335Z,5.10
2023-04-26T06:40:50.690Z,5.47
2023-04-26T06:45:59.305Z,5.53
2023-04-26T06:51:08.794Z,4.97
2023-04-26T06:56:14.273Z,4.97
2023-04-26T07:01:22.355Z,4.97
2023-04-26T07:06:29.219Z,5.47
2023-04-26T07:11:35.209Z,3.93
2023-04-26T07:16:44.020Z,5.45
2023-04-26T07:21:49.633Z,4.67
2023-04-26T07:26:55.328Z,3.93
2023-04-26T07:32:04.185Z,3.65
2023-04-26T07:37:09.806Z,4.07
2023-04-26T07:42:15.532Z,3.57
2023-04-26T07:47:23.921Z,3.83
2023-04-26T07:52:29.340Z,3.73
2023-04-26T07:57:34.812Z,2.90
2023-04-26T08:02:45.145Z,2.47
2023-04-26T08:07:52.290Z,2.80
2023-04-26T08:12:57.751Z,2.23
2023-04-26T08:18:05.968Z,1.77
2023-04-26T08:23:11.704Z,1.48
2023-04-26T08:28:17.383Z,2.50
2023-04-26T08:33:25.709Z,2.20
2023-04-26T08:38:32.518Z,3.13
2023-04-26T08:43:40.074Z,2.87
2023-04-26T08:48:55.863Z,2.40
2023-04-26T08:54:04.168Z,2.30
2023-04-26T08:59:13.256Z,2.30
2023-04-26T09:04:22.841Z,2.28
2023-04-26T09:09:35.390Z,2.30
2023-04-26T09:14:42.066Z,1.87
2023-04-26T09:19:50.106Z,1.77
2023-04-26T09:24:55.558Z,2.00
2023-04-26T09:30:03.156Z,1.77
2023-04-26T09:35:11.740Z,2.08
2023-04-26T09:40:21.951Z,2.10
2023-04-26T09:45:27.604Z,1.70
2023-04-26T09:50:35.766Z,2.30
2023-04-26T09:55:41.635Z,1.77
2023-04-26T10:00:47.606Z,1.57
2023-04-26T10:05:56.146Z,1.55
2023-04-26T10:11:02.983Z,1.40
2023-04-26T10:16:10.431Z,1.77
2023-04-26T10:21:23.265Z,1.30
2023-04-26T10:26:50.157Z,1.73
2023-04-26T10:32:17.004Z,2.20
2023-04-26T10:37:25.882Z,1.90
2023-04-26T10:42:32.526Z,1.67
2023-04-26T10:47:39.209Z,2.00
2023-04-26T10:53:10.914Z,2.00
2023-04-26T10:58:32.473Z,1.77
2023-04-26T11:03:41.341Z,2.70
2023-04-26T11:08:51.066Z,1.73
2023-04-26T11:13:56.867Z,1.50
2023-04-26T11:19:02.848Z,2.00
2023-04-26T11:24:11.194Z,1.70
2023-04-26T11:29:22.028Z,1.83
2023-04-26T11:34:35.597Z,2.30
2023-04-26T11:39:43.886Z,1.70
2023-04-26T11:44:49.405Z,1.70
2023-04-26T11:49:55.315Z,1.70
2023-04-26T11:55:11.239Z,2.10
2023-04-26T12:00:20.396Z,2.03
2023-04-26T12:05:28.184Z,1.30
2023-04-26T12:10:39.006Z,1.70
2023-04-26T12:15:44.671Z,1.40
2023-04-26T12:20:50.311Z,1.43
2023-04-26T12:26:02.311Z,1.50
2023-04-26T12:31:09.443Z,1.53
2023-04-26T12:36:16.134Z,1.70
2023-04-26T12:41:24.697Z,1.55
2023-04-26T12:46:30.300Z,1.60
2023-04-26T12:51:36.457Z,1.53
2023-04-26T12:56:46.219Z,1.58
2023-04-26T13:01:56.167Z,2.10
2023-04-26T13:07:02.531Z,1.37
2023-04-26T13:12:12.000Z,1.30
2023-04-26T13:17:17.789Z,1.20
2023-04-26T13:22:24.019Z,1.63
2023-04-26T13:27:32.828Z,1.88
2023-04-26T13:32:38.614Z,1.77
2023-04-26T13:37:44.814Z,1.77
2023-04-26T13:42:53.085Z,1.92
2023-04-26T13:47:59.331Z,1.67
2023-04-26T13:53:05.445Z,1.60
2023-04-26T13:58:13.948Z,1.90
2023-04-26T14:03:20.085Z,1.83
2023-04-26T14:08:25.788Z,1.43
2023-04-26T14:13:33.955Z,1.88
2023-04-26T14:18:45.219Z,1.60
2023-04-26T14:23:50.863Z,1.80
2023-04-26T14:28:58.986Z,2.25
2023-04-26T14:34:04.724Z,2.13
2023-04-26T14:39:10.585Z,2.00
2023-04-26T14:44:18.820Z,2.25
2023-04-26T14:49:24.401Z,2.40
2023-04-26T14:54:29.993Z,1.83
2023-04-26T14:59:38.211Z,2.13
2023-04-26T15:04:44.050Z,1.93
2023-04-26T15:09:51.279Z,2.17
2023-04-26T15:15:03.115Z,2.55
2023-04-26T15:20:09.805Z,1.70
2023-04-26T15:25:17.454Z,2.70
2023-04-26T15:30:26.430Z,3.05
2023-04-26T15:35:32.751Z,2.50
2023-04-26T15:40:39.474Z,2.57
2023-04-26T15:45:49.236Z,2.75
2023-04-26T15:50:57.120Z,2.83
2023-04-26T15:56:02.832Z,2.80
2023-04-26T16:01:11.345Z,3.30
2023-04-26T16:06:17.213Z,2.58
2023-04-26T16:11:23.297Z,2.47
2023-04-26T16:16:31.470Z,2.40
2023-04-26T16:21:39.842Z,2.23
2023-04-26T16:26:46.569Z,2.20
2023-04-26T16:31:55.182Z,2.38
2023-04-26T16:37:00.994Z,2.53
2023-04-26T16:42:07.055Z,2.50
2023-04-26T16:47:15.264Z,2.45
2023-04-26T16:52:20.710Z,2.10
2023-04-26T16:57:26.526Z,2.50
2023-04-26T17:02:34.875Z,2.70
2023-04-26T17:07:40.768Z,3.33
2023-04-26T17:12:46.857Z,3.03
2023-04-26T17:17:55.268Z,2.67
2023-04-26T17:23:00.988Z,2.63
2023-04-26T17:28:06.725Z,3.03
2023-04-26T17:33:15.140Z,2.80
2023-04-26T17:38:21.068Z,2.67
2023-04-26T17:43:35.996Z,3.30
2023-04-26T17:48:44.625Z,3.28
2023-04-26T17:53:52.775Z,3.80
2023-04-26T17:58:58.654Z,2.53
2023-04-26T18:04:07.806Z,2.97
2023-04-26T18:09:13.620Z,2.40
2023-04-26T18:14:19.331Z,2.30
2023-04-26T18:19:31.339Z,2.03
2023-04-26T18:24:38.875Z,2.57
2023-04-26T18:29:45.181Z,2.10
2023-04-26T18:34:57.384Z,2.50
2023-04-26T18:40:05.202Z,2.70
2023-04-26T18:45:12.005Z,2.30
2023-04-26T18:50:20.358Z,2.38
2023-04-26T18:55:26.175Z,2.60
2023-04-26T19:00:32.836Z,2.33
2023-04-26T19:05:44.241Z,2.25
2023-04-26T19:10:50.085Z,2.27
2023-04-26T19:15:55.803Z,2.33
2023-04-26T19:21:06.478Z,2.15
2023-04-26T19:26:15.242Z,2.23
2023-04-26T19:31:21.192Z,1.93
2023-04-26T19:36:29.870Z,2.00
2023-04-26T19:41:35.810Z,2.20
2023-04-26T19:46:45.109Z,2.28
2023-04-26T19:51:54.224Z,1.90
2023-04-26T19:57:00.057Z,2.30
2023-04-26T20:02:07.216Z,2.20
2023-04-26T20:07:15.869Z,2.45
2023-04-26T20:12:21.643Z,2.40
2023-04-26T20:17:27.444Z,2.13
2023-04-26T20:22:39.310Z,2.10
2023-04-26T20:27:45.434Z,2.30
2023-04-26T20:32:51.151Z,2.75
2023-04-26T20:37:59.644Z,2.57
2023-04-26T20:43:05.457Z,2.37
2023-04-26T20:48:11.251Z,2.35
2023-04-26T20:53:19.450Z,2.77
2023-04-26T20:58:24.781Z,2.70
2023-04-26T21:03:36.000Z,2.95
2023-04-26T21:08:44.644Z,2.80
2023-04-26T21:13:50.280Z,2.97
2023-04-26T21:18:56.795Z,2.70
2023-04-26T21:24:06.738Z,3.10
2023-04-26T21:29:12.592Z,3.33
2023-04-26T21:34:22.076Z,2.90
2023-04-26T21:39:31.177Z,2.93
2023-04-26T21:44:36.920Z,3.10
2023-04-26T21:49:42.468Z,2.88
2023-04-26T21:54:52.788Z,2.77
2023-04-26T21:59:59.547Z,2.87
2023-04-26T22:05:05.760Z,2.88
2023-04-26T22:10:14.283Z,3.00
2023-04-26T22:15:20.147Z,3.03
2023-04-26T22:20:31.127Z,3.55
2023-04-26T22:25:42.256Z,2.93
2023-04-26T22:30:51.966Z,3.30
2023-04-26T22:35:59.490Z,3.78
2023-04-26T22:41:08.348Z,2.93
2023-04-26T22:46:13.977Z,2.88
2023-04-26T22:51:19.501Z,2.40
2023-04-26T22:56:27.603Z,2.80
2023-04-26T23:01:33.083Z,3.08
2023-04-26T23:06:44.157Z,2.70
2023-04-26T23:11:52.240Z,2.92
2023-04-26T23:16:58.680Z,2.95
2023-04-26T23:22:04.926Z,2.93
2023-04-26T23:27:13.543Z,2.80
2023-04-26T23:32:19.067Z,3.80
2023-04-26T23:37:45.647Z,3.17
2023-04-26T23:42:54.239Z,2.92
2023-04-26T23:47:59.780Z,3.40
2023-04-26T23:53:05.861Z,3.00
2023-04-26T23:58:14.036Z,3.23
